createdAt,value
2019-02-19T00:00:52.776Z,5.50
2019-02-19T00:03:20.620Z,5.50
2019-02-19T00:05:48.368Z,5.40
2019-02-19T00:08:15.728Z,5.30
2019-02-19T00:10:43.190Z,5.50
2019-02-19T00:13:11.150Z,5.40
2019-02-19T00:15:39.222Z,5.50
2019-02-19T00:18:06.584Z,5.40
2019-02-19T00:20:34.332Z,5.50
2019-02-19T00:23:02.116Z,5.50
2019-02-19T00:25:29.530Z,5.50
2019-02-19T00:27:57.391Z,5.30
2019-02-19T00:30:25.454Z,5.30
2019-02-19T00:32:54.397Z,5.20
2019-02-19T00:35:21.747Z,5.20
2019-02-19T00:37:49.129Z,5.30
2019-02-19T00:40:16.887Z,5.20
2019-02-19T00:42:44.382Z,5.10
2019-02-19T00:45:16.707Z,5.10
2019-02-19T00:47:41.371Z,5.30
2019-02-19T00:50:09.479Z,5.50
2019-02-19T00:52:36.978Z,5.60
2019-02-19T00:55:04.423Z,5.70
2019-02-19T00:57:31.799Z,5.80
2019-02-19T00:59:59.682Z,5.80
2019-02-19T01:02:27.226Z,5.80
2019-02-19T01:04:54.999Z,5.80
2019-02-19T01:07:22.537Z,5.80
2019-02-19T01:09:50.006Z,5.80
2019-02-19T01:12:18.253Z,5.80
2019-02-19T01:14:45.932Z,5.70
2019-02-19T01:17:13.432Z,5.60
2019-02-19T01:19:40.922Z,5.60
2019-02-19T01:22:08.403Z,5.70
2019-02-19T01:24:35.867Z,5.80
2019-02-19T01:27:03.702Z,5.90
2019-02-19T01:29:31.320Z,6.10
2019-02-19T01:31:58.954Z,6.10
2019-02-19T01:34:45.801Z,6.20
2019-02-19T01:37:13.185Z,6.10
2019-02-19T01:39:41.526Z,6.10
2019-02-19T01:42:09.502Z,6.20
2019-02-19T01:44:37.270Z,6.10
2019-02-19T01:47:04.711Z,6.10
2019-02-19T01:49:32.239Z,6.10
2019-02-19T01:52:00.047Z,6.10
2019-02-19T01:54:27.458Z,6.20
2019-02-19T01:56:54.776Z,6.30
2019-02-19T01:59:22.707Z,6.30
2019-02-19T02:01:50.233Z,6.10
2019-02-19T02:04:18.258Z,5.90
2019-02-19T02:06:45.869Z,6.00
2019-02-19T02:09:13.429Z,6.00
2019-02-19T02:11:40.792Z,5.80
2019-02-19T02:14:08.189Z,5.60
2019-02-19T02:16:35.696Z,5.50
2019-02-19T02:19:03.237Z,5.60
2019-02-19T02:21:31.152Z,5.70
2019-02-19T02:23:58.689Z,5.80
2019-02-19T02:26:26.584Z,5.90
2019-02-19T02:28:54.981Z,5.80
2019-02-19T02:31:22.457Z,5.60
2019-02-19T02:33:49.941Z,5.50
2019-02-19T02:36:17.375Z,5.40
2019-02-19T02:38:45.018Z,5.50
2019-02-19T02:41:12.953Z,5.50
2019-02-19T02:43:40.344Z,5.40
2019-02-19T02:46:08.087Z,5.40
2019-02-19T02:48:35.421Z,5.30
2019-02-19T02:51:02.773Z,5.20
2019-02-19T02:53:30.150Z,5.40
2019-02-19T02:55:58.192Z,5.50
2019-02-19T02:58:26.110Z,5.30
2019-02-19T03:00:53.454Z,5.30
2019-02-19T03:03:21.188Z,5.30
2019-02-19T03:06:16.174Z,5.50
2019-02-19T03:08:43.568Z,5.60
2019-02-19T03:11:11.021Z,5.90
2019-02-19T03:13:38.936Z,6.20
2019-02-19T03:16:06.432Z,6.40
2019-02-19T03:18:34.099Z,6.50
2019-02-19T03:21:01.476Z,6.50
2019-02-19T03:23:28.973Z,6.40
2019-02-19T03:25:56.856Z,6.40
2019-02-19T03:28:24.683Z,6.30
2019-02-19T03:30:52.540Z,6.20
2019-02-19T03:33:20.105Z,6.20
2019-02-19T03:35:47.640Z,6.20
2019-02-19T03:38:15.045Z,6.10
2019-02-19T03:40:42.720Z,6.20
2019-02-19T03:43:10.368Z,6.10
2019-02-19T03:45:38.519Z,6.10
2019-02-19T03:48:05.995Z,6.00
2019-02-19T03:50:33.454Z,6.10
2019-02-19T03:53:00.822Z,6.30
2019-02-19T03:55:28.264Z,6.50
2019-02-19T03:57:56.089Z,6.70
2019-02-19T04:00:23.469Z,6.80
2019-02-19T04:02:51.244Z,7.00
2019-02-19T04:05:18.740Z,7.10
2019-02-19T04:07:46.546Z,7.20
2019-02-19T04:10:14.075Z,7.20
2019-02-19T04:12:42.154Z,7.30
2019-02-19T04:15:09.636Z,7.50
2019-02-19T04:17:37.110Z,7.50
2019-02-19T04:20:04.900Z,7.60
2019-02-19T04:22:32.681Z,7.60
2019-02-19T04:25:00.296Z,7.70
2019-02-19T04:27:27.988Z,7.70
2019-02-19T04:29:55.443Z,7.70
2019-02-19T04:32:22.969Z,7.70
2019-02-19T04:34:50.956Z,7.70
2019-02-19T04:37:18.469Z,7.70
2019-02-19T04:39:45.897Z,7.60
2019-02-19T04:42:14.058Z,7.60
2019-02-19T04:44:41.468Z,7.60
2019-02-19T04:47:08.930Z,7.50
2019-02-19T04:49:36.774Z,7.40
2019-02-19T04:52:04.412Z,7.30
2019-02-19T04:54:32.237Z,7.20
2019-02-19T04:57:00.025Z,7.20
2019-02-19T04:59:27.657Z,7.20
2019-02-19T05:01:55.141Z,7.20
2019-02-19T05:04:23.618Z,7.10
2019-02-19T05:06:51.150Z,7.20
2019-02-19T05:09:19.210Z,7.20
2019-02-19T05:11:46.536Z,7.20
2019-02-19T05:14:13.915Z,7.30
2019-02-19T05:16:41.417Z,7.30
2019-02-19T05:19:09.425Z,7.30
2019-02-19T05:21:37.630Z,7.40
2019-02-19T05:24:05.260Z,7.50
2019-02-19T05:26:32.773Z,7.50
2019-02-19T05:29:00.490Z,7.60
2019-02-19T05:31:28.270Z,7.60
2019-02-19T05:33:56.747Z,7.50
2019-02-19T05:36:24.149Z,7.60
2019-02-19T05:38:51.513Z,7.60
2019-02-19T05:41:19.186Z,7.60
2019-02-19T05:43:46.624Z,7.70
2019-02-19T05:46:14.094Z,7.60
2019-02-19T05:48:41.428Z,7.60
2019-02-19T05:51:09.169Z,7.60
2019-02-19T05:53:36.671Z,7.50
2019-02-19T05:56:04.148Z,7.50
2019-02-19T05:58:31.767Z,7.60
2019-02-19T06:00:59.577Z,7.60
2019-02-19T06:03:27.104Z,7.60
2019-02-19T06:05:54.521Z,7.50
2019-02-19T06:08:21.996Z,7.50
2019-02-19T06:10:49.494Z,7.40
2019-02-19T06:13:16.986Z,7.40
2019-02-19T06:15:45.145Z,7.40
2019-02-19T06:18:12.802Z,7.40
2019-02-19T06:20:40.164Z,7.40
2019-02-19T06:23:07.514Z,7.30
2019-02-19T06:25:35.976Z,7.20
2019-02-19T06:28:03.311Z,7.10
2019-02-19T06:30:30.982Z,7.10
2019-02-19T06:32:58.656Z,7.00
2019-02-19T06:35:26.066Z,7.00
2019-02-19T06:37:53.530Z,7.00
2019-02-19T06:40:23.674Z,7.00
2019-02-19T06:42:51.018Z,7.10
2019-02-19T06:45:19.033Z,7.10
2019-02-19T06:47:46.552Z,7.10
2019-02-19T06:50:14.041Z,7.30
2019-02-19T06:52:41.461Z,7.40
2019-02-19T06:55:09.467Z,7.50
2019-02-19T06:57:37.367Z,7.60
2019-02-19T07:00:05.729Z,7.70
2019-02-19T07:02:42.419Z,7.90
2019-02-19T07:05:21.464Z,8.00
2019-02-19T07:07:49.170Z,8.00
2019-02-19T07:10:17.134Z,8.00
2019-02-19T07:12:44.899Z,8.10
2019-02-19T07:15:12.384Z,8.10
2019-02-19T07:17:40.129Z,8.10
2019-02-19T07:20:07.659Z,8.20
2019-02-19T07:22:36.275Z,8.20
2019-02-19T07:25:04.007Z,8.20
2019-02-19T07:27:31.873Z,8.30
2019-02-19T07:29:59.683Z,8.20
2019-02-19T07:32:27.187Z,8.30
2019-02-19T07:34:54.711Z,8.20
2019-02-19T07:37:22.554Z,8.20
2019-02-19T07:39:50.103Z,8.20
2019-02-19T07:42:17.991Z,8.30
2019-02-19T07:44:45.346Z,8.30
2019-02-19T07:47:13.250Z,8.30
2019-02-19T07:49:41.051Z,8.30
2019-02-19T07:52:08.572Z,8.30
2019-02-19T07:54:35.903Z,8.30
2019-02-19T07:57:03.632Z,8.40
2019-02-19T07:59:31.697Z,8.30
2019-02-19T08:01:59.298Z,8.40
2019-02-19T08:04:27.427Z,8.40
2019-02-19T08:06:55.324Z,8.40
2019-02-19T08:09:22.810Z,8.40
2019-02-19T08:11:50.195Z,8.40
2019-02-19T08:14:17.680Z,8.40
2019-02-19T08:16:45.445Z,8.40
2019-02-19T08:19:12.799Z,8.50
2019-02-19T08:21:40.279Z,8.50
2019-02-19T08:24:07.759Z,8.50
2019-02-19T08:26:35.260Z,8.60
2019-02-19T08:29:13.076Z,8.70
2019-02-19T08:31:32.130Z,8.70
2019-02-19T08:33:59.685Z,8.80
2019-02-19T08:36:27.168Z,8.80
2019-02-19T08:38:54.633Z,8.70
2019-02-19T08:41:22.157Z,8.70
2019-02-19T08:43:49.595Z,8.70
2019-02-19T08:46:17.118Z,8.70
2019-02-19T08:48:44.603Z,8.70
2019-02-19T08:51:12.136Z,8.60
2019-02-19T08:53:39.999Z,8.60
2019-02-19T08:56:07.757Z,8.50
2019-02-19T08:58:35.344Z,8.60
2019-02-19T09:01:02.798Z,8.50
2019-02-19T09:03:31.735Z,8.50
2019-02-19T09:05:59.892Z,8.50
2019-02-19T09:08:27.764Z,8.40
2019-02-19T09:10:55.080Z,8.40
2019-02-19T09:13:22.935Z,8.40
2019-02-19T09:15:50.541Z,8.40
2019-02-19T09:18:18.216Z,8.40
2019-02-19T09:20:45.964Z,8.40
2019-02-19T09:23:13.888Z,8.40
2019-02-19T09:25:41.499Z,8.50
2019-02-19T09:28:09.824Z,8.50
2019-02-19T09:30:37.364Z,8.50
2019-02-19T09:33:04.885Z,8.50
2019-02-19T09:35:32.569Z,8.60
2019-02-19T09:37:59.940Z,8.60
2019-02-19T09:40:27.643Z,8.60
2019-02-19T09:42:55.153Z,8.60
2019-02-19T09:45:22.474Z,8.60
2019-02-19T09:47:50.149Z,8.70
2019-02-19T09:50:18.242Z,8.70
2019-02-19T09:52:46.105Z,8.70
2019-02-19T09:55:13.460Z,8.70
2019-02-19T09:57:40.867Z,8.80
2019-02-19T10:00:09.600Z,8.80
2019-02-19T10:02:37.345Z,8.90
2019-02-19T10:05:05.691Z,8.90
2019-02-19T10:07:33.159Z,9.00
2019-02-19T10:10:00.918Z,9.00
2019-02-19T10:12:28.524Z,9.00
2019-02-19T10:14:55.846Z,9.00
2019-02-19T10:17:23.228Z,9.10
2019-02-19T10:19:50.734Z,9.20
2019-02-19T10:22:18.230Z,9.20
2019-02-19T10:24:45.621Z,9.20
2019-02-19T10:27:13.149Z,9.20
2019-02-19T10:29:40.662Z,9.30
2019-02-19T10:32:08.208Z,9.30
2019-02-19T10:34:35.958Z,9.30
2019-02-19T10:37:03.292Z,9.30
2019-02-19T10:39:31.043Z,9.40
2019-02-19T10:41:58.698Z,9.40
2019-02-19T10:44:26.770Z,9.40
2019-02-19T10:46:54.104Z,9.40
2019-02-19T10:49:21.708Z,9.40
2019-02-19T10:51:49.627Z,9.50
2019-02-19T10:54:17.075Z,9.50
2019-02-19T10:56:44.886Z,9.50
2019-02-19T10:59:13.043Z,9.40
2019-02-19T11:01:40.378Z,9.40
2019-02-19T11:04:07.872Z,9.50
2019-02-19T11:06:35.634Z,9.40
2019-02-19T11:09:04.714Z,9.40
2019-02-19T11:11:34.039Z,9.40
2019-02-19T11:14:01.420Z,9.40
2019-02-19T11:16:28.861Z,9.50
2019-02-19T11:18:56.239Z,9.40
2019-02-19T11:21:23.637Z,9.40
2019-02-19T11:23:51.302Z,9.50
2019-02-19T11:26:18.646Z,9.50
2019-02-19T11:28:46.470Z,9.40
2019-02-19T11:31:13.946Z,9.50
2019-02-19T11:33:41.425Z,9.50
2019-02-19T11:36:08.772Z,9.50
2019-02-19T11:38:37.497Z,9.50
2019-02-19T11:41:04.809Z,9.50
2019-02-19T11:43:33.202Z,9.50
2019-02-19T11:46:00.719Z,9.50
2019-02-19T11:48:36.632Z,9.50
2019-02-19T11:50:58.291Z,9.50
2019-02-19T11:53:25.606Z,9.50
2019-02-19T11:55:53.006Z,9.50
2019-02-19T11:58:20.554Z,9.50
2019-02-19T12:00:48.073Z,9.50
2019-02-19T12:03:15.469Z,9.50
2019-02-19T12:05:43.259Z,9.50
2019-02-19T12:08:10.641Z,9.50
2019-02-19T12:10:38.125Z,9.50
2019-02-19T12:13:05.744Z,9.50
2019-02-19T12:15:35.375Z,9.50
2019-02-19T12:18:02.962Z,9.40
2019-02-19T12:20:30.615Z,9.40
2019-02-19T12:22:58.277Z,9.40
2019-02-19T12:25:25.845Z,9.40
2019-02-19T12:27:53.339Z,9.40
2019-02-19T12:30:21.203Z,9.40
2019-02-19T12:32:48.786Z,9.40
2019-02-19T12:35:16.892Z,9.40
2019-02-19T12:37:44.271Z,9.30
2019-02-19T12:40:11.795Z,9.40
2019-02-19T12:42:39.737Z,9.40
2019-02-19T12:45:08.770Z,9.30
2019-02-19T12:47:36.611Z,9.30
2019-02-19T12:50:04.679Z,9.30
2019-02-19T12:52:32.318Z,9.30
2019-02-19T12:55:00.280Z,9.30
2019-02-19T12:57:27.772Z,9.20
2019-02-19T12:59:56.752Z,9.20
2019-02-19T13:02:24.480Z,9.20
2019-02-19T13:04:52.013Z,9.20
2019-02-19T13:07:19.687Z,9.20
2019-02-19T13:09:47.423Z,9.20
2019-02-19T13:12:14.809Z,9.10
2019-02-19T13:14:42.740Z,9.10
2019-02-19T13:17:11.222Z,9.00
2019-02-19T13:19:39.816Z,9.00
2019-02-19T13:22:07.385Z,9.00
2019-02-19T13:24:34.908Z,9.00
2019-02-19T13:27:02.683Z,9.10
2019-02-19T13:29:30.171Z,9.10
2019-02-19T13:31:57.936Z,9.10
2019-02-19T13:34:25.332Z,9.00
2019-02-19T13:36:53.141Z,9.00
2019-02-19T13:39:20.580Z,9.00
2019-02-19T13:41:48.122Z,9.00
2019-02-19T13:44:15.789Z,9.00
2019-02-19T13:46:44.176Z,8.90
2019-02-19T13:49:12.592Z,8.90
2019-02-19T13:51:40.167Z,8.90
2019-02-19T13:54:12.048Z,8.90
2019-02-19T13:56:39.754Z,9.00
2019-02-19T13:59:07.120Z,9.00
2019-02-19T14:01:35.162Z,9.10
2019-02-19T14:04:02.509Z,9.20
2019-02-19T14:06:30.035Z,9.10
2019-02-19T14:08:57.418Z,9.20
2019-02-19T14:11:24.831Z,9.20
2019-02-19T14:14:20.738Z,9.20
2019-02-19T14:16:55.008Z,9.20
2019-02-19T14:19:40.870Z,9.10
2019-02-19T14:22:31.169Z,9.00
2019-02-19T14:25:16.846Z,9.00
2019-02-19T14:28:02.550Z,9.00
2019-02-19T14:30:52.581Z,9.00
2019-02-19T14:33:38.524Z,8.90
2019-02-19T14:36:17.554Z,8.80
2019-02-19T14:39:23.657Z,8.90
2019-02-19T14:42:08.085Z,9.00
2019-02-19T14:45:10.194Z,9.10
2019-02-19T14:47:46.175Z,9.20
2019-02-19T14:50:32.044Z,9.10
2019-02-19T14:53:37.031Z,9.10
2019-02-19T14:56:24.061Z,9.00
2019-02-19T14:59:09.539Z,8.90
2019-02-19T15:01:56.310Z,8.90
2019-02-19T15:04:58.747Z,8.90
2019-02-19T15:07:34.461Z,9.00
2019-02-19T15:10:12.843Z,9.20
2019-02-19T15:13:06.405Z,9.20
2019-02-19T15:15:47.094Z,9.10
2019-02-19T15:18:32.727Z,9.10
2019-02-19T15:21:37.627Z,9.10
2019-02-19T15:24:33.346Z,9.00
2019-02-19T15:27:23.233Z,8.90
2019-02-19T15:30:07.126Z,8.80
2019-02-19T15:32:54.153Z,8.70
2019-02-19T15:35:41.489Z,8.70
2019-02-19T15:38:31.402Z,8.70
2019-02-19T15:41:18.651Z,8.80
2019-02-19T15:44:11.120Z,8.80
2019-02-19T15:46:45.973Z,8.70
2019-02-19T15:49:47.311Z,8.80
2019-02-19T15:52:24.831Z,8.90
2019-02-19T15:55:10.074Z,9.00
2019-02-19T15:57:46.101Z,9.00
2019-02-19T16:00:32.822Z,9.10
2019-02-19T16:03:06.201Z,9.00
2019-02-19T16:05:49.657Z,8.80
2019-02-19T16:08:36.637Z,8.80
2019-02-19T16:11:22.985Z,8.70
2019-02-19T16:14:16.711Z,8.80
2019-02-19T16:17:19.665Z,8.70
2019-02-19T16:20:12.849Z,8.60
2019-02-19T16:22:58.229Z,8.60
2019-02-19T16:25:45.531Z,8.50
2019-02-19T16:28:42.053Z,8.60
2019-02-19T16:31:23.249Z,8.70
2019-02-19T16:34:16.133Z,8.80
2019-02-19T16:36:49.182Z,8.80
2019-02-19T16:39:29.115Z,8.80
2019-02-19T16:42:05.151Z,8.90
2019-02-19T16:44:41.139Z,8.90
2019-02-19T16:47:36.919Z,8.80
2019-02-19T16:50:33.574Z,8.80
2019-02-19T16:53:23.838Z,8.70
2019-02-19T16:56:16.160Z,8.60
2019-02-19T16:58:51.586Z,8.70
2019-02-19T17:01:44.587Z,8.60
2019-02-19T17:04:27.569Z,8.70
2019-02-19T17:07:03.933Z,8.80
2019-02-19T17:09:56.285Z,8.80
2019-02-19T17:12:49.208Z,8.80
2019-02-19T17:15:39.350Z,8.80
2019-02-19T17:18:25.180Z,8.90
2019-02-19T17:21:07.450Z,8.80
2019-02-19T17:23:43.894Z,8.80
2019-02-19T17:26:22.328Z,8.90
2019-02-19T17:28:58.797Z,8.90
2019-02-19T17:31:35.405Z,8.80
2019-02-19T17:34:31.535Z,8.80
2019-02-19T17:37:30.924Z,8.80
2019-02-19T17:40:18.437Z,8.80
2019-02-19T17:43:08.494Z,8.70
2019-02-19T17:45:58.211Z,8.80
2019-02-19T17:48:40.252Z,8.80
2019-02-19T17:51:29.862Z,8.80
2019-02-19T17:54:20.059Z,8.80
2019-02-19T17:57:16.339Z,8.70
2019-02-19T18:00:08.048Z,8.80
2019-02-19T18:02:55.839Z,8.70
2019-02-19T18:05:45.193Z,8.70
2019-02-19T18:08:31.232Z,8.70
2019-02-19T18:11:12.969Z,8.70
2019-02-19T18:13:46.372Z,8.60
2019-02-19T18:16:33.413Z,8.50
2019-02-19T18:19:01.681Z,8.50
2019-02-19T18:21:29.479Z,8.60
2019-02-19T18:23:57.186Z,8.60
2019-02-19T18:26:24.800Z,8.50
2019-02-19T18:28:52.653Z,8.50
2019-02-19T18:31:20.219Z,8.50
2019-02-19T18:33:47.732Z,8.60
2019-02-19T18:36:15.581Z,8.60
2019-02-19T18:38:43.598Z,8.50
2019-02-19T18:41:11.138Z,8.60
2019-02-19T18:43:38.877Z,8.50
2019-02-19T18:46:06.596Z,8.50
2019-02-19T18:48:34.536Z,8.50
2019-02-19T18:51:02.053Z,8.40
2019-02-19T18:53:29.919Z,8.40
2019-02-19T18:55:57.976Z,8.40
2019-02-19T18:58:25.632Z,8.40
2019-02-19T19:00:53.385Z,8.30
2019-02-19T19:03:20.794Z,8.50
2019-02-19T19:05:48.341Z,8.60
2019-02-19T19:08:16.261Z,8.60
2019-02-19T19:10:56.308Z,8.60
2019-02-19T19:13:24.235Z,8.60
2019-02-19T19:15:51.947Z,8.60
2019-02-19T19:18:19.703Z,8.60
2019-02-19T19:20:47.984Z,8.50
2019-02-19T19:23:15.964Z,8.50
2019-02-19T19:25:43.299Z,8.50
2019-02-19T19:28:10.636Z,8.50
2019-02-19T19:30:38.029Z,8.60
2019-02-19T19:33:06.094Z,8.50
2019-02-19T19:35:33.739Z,8.40
2019-02-19T19:38:01.600Z,8.30
2019-02-19T19:40:29.345Z,8.40
2019-02-19T19:42:57.680Z,8.50
2019-02-19T19:45:24.998Z,8.40
2019-02-19T19:47:52.767Z,8.40
2019-02-19T19:50:20.630Z,8.40
2019-02-19T19:52:48.470Z,8.30
2019-02-19T19:55:16.087Z,8.30
2019-02-19T19:57:43.855Z,8.30
2019-02-19T20:00:11.688Z,8.40
2019-02-19T20:02:39.840Z,8.30
2019-02-19T20:05:07.320Z,8.20
2019-02-19T20:07:35.799Z,8.00
2019-02-19T20:10:03.262Z,7.90
2019-02-19T20:12:32.046Z,8.00
2019-02-19T20:14:59.432Z,8.10
2019-02-19T20:17:27.046Z,8.10
2019-02-19T20:19:54.773Z,8.10
2019-02-19T20:22:22.199Z,8.10
2019-02-19T20:24:49.516Z,8.00
2019-02-19T20:27:17.266Z,8.10
2019-02-19T20:29:44.777Z,7.90
2019-02-19T20:32:12.713Z,7.80
2019-02-19T20:34:40.055Z,7.70
2019-02-19T20:37:07.552Z,7.70
2019-02-19T20:39:35.617Z,7.80
2019-02-19T20:42:03.107Z,7.80
2019-02-19T20:44:30.871Z,7.70
2019-02-19T20:46:58.694Z,7.60
2019-02-19T20:49:26.134Z,7.70
2019-02-19T20:51:53.815Z,7.60
2019-02-19T20:54:21.521Z,7.60
2019-02-19T20:56:50.571Z,7.50
2019-02-19T20:59:18.225Z,7.50
2019-02-19T21:01:46.262Z,7.50
2019-02-19T21:04:13.595Z,7.40
2019-02-19T21:06:41.438Z,7.50
2019-02-19T21:09:09.202Z,7.40
2019-02-19T21:11:38.436Z,7.40
2019-02-19T21:14:06.025Z,7.40
2019-02-19T21:16:33.822Z,7.40
2019-02-19T21:19:01.562Z,7.30
2019-02-19T21:21:30.705Z,7.20
2019-02-19T21:23:58.703Z,7.20
2019-02-19T21:26:27.393Z,7.20
2019-02-19T21:28:55.148Z,7.20
2019-02-19T21:31:22.961Z,7.10
2019-02-19T21:33:50.929Z,7.10
2019-02-19T21:36:18.279Z,7.10
2019-02-19T21:38:45.738Z,7.00
2019-02-19T21:41:13.347Z,7.00
2019-02-19T21:43:40.800Z,6.80
2019-02-19T21:46:08.298Z,6.90
2019-02-19T21:48:35.972Z,6.90
2019-02-19T21:51:03.475Z,7.00
2019-02-19T21:53:31.071Z,6.90
2019-02-19T21:55:58.737Z,6.90
2019-02-19T21:58:26.215Z,6.80
2019-02-19T22:00:53.887Z,6.80
2019-02-19T22:03:23.474Z,6.80
2019-02-19T22:05:51.259Z,6.80
2019-02-19T22:08:19.202Z,6.80
2019-02-19T22:10:46.996Z,6.80
2019-02-19T22:13:14.622Z,6.90
2019-02-19T22:15:42.626Z,6.70
2019-02-19T22:18:10.232Z,6.70
2019-02-19T22:20:59.735Z,6.70
2019-02-19T22:23:27.287Z,6.60
2019-02-19T22:25:55.087Z,6.60
2019-02-19T22:28:23.060Z,6.60
2019-02-19T22:30:50.623Z,6.40
2019-02-19T22:33:18.249Z,6.40
2019-02-19T22:35:45.605Z,6.30
2019-02-19T22:38:12.971Z,6.10
2019-02-19T22:40:40.362Z,6.00
2019-02-19T22:43:08.055Z,6.10
2019-02-19T22:45:35.934Z,6.10
2019-02-19T22:48:05.035Z,6.20
2019-02-19T22:50:32.798Z,6.10
2019-02-19T22:53:00.873Z,6.10
2019-02-19T22:55:53.362Z,6.00
2019-02-19T22:58:20.814Z,6.20
2019-02-19T23:01:01.964Z,6.10
2019-02-19T23:03:31.217Z,6.10
2019-02-19T23:05:59.101Z,6.10
2019-02-19T23:08:27.220Z,6.10
2019-02-19T23:11:05.398Z,6.10
2019-02-19T23:13:33.266Z,6.10
2019-02-19T23:16:01.457Z,6.00
2019-02-19T23:18:28.835Z,5.90
2019-02-19T23:20:56.745Z,5.90
2019-02-19T23:23:24.277Z,6.00
2019-02-19T23:25:51.927Z,6.00
2019-02-19T23:28:19.410Z,6.00
2019-02-19T23:30:46.898Z,6.10
2019-02-19T23:33:14.388Z,6.00
2019-02-19T23:35:55.886Z,5.90
2019-02-19T23:38:23.617Z,5.80
2019-02-19T23:40:51.104Z,5.80
2019-02-19T23:43:38.504Z,5.90
2019-02-19T23:46:06.251Z,6.00
2019-02-19T23:48:34.116Z,6.00
2019-02-19T23:51:01.451Z,6.00
2019-02-19T23:53:29.133Z,5.90
2019-02-19T23:55:56.580Z,5.80
2019-02-19T23:58:24.066Z,5.80
